Aviation Digital Data Service (ADDS)

Output produced by METARs form (1428 UTC 02 October 2014)
found at http://aviationweather.gov/adds/metars/
 
KSAN 021136Z 0212/0318 VRB04KT P6SM SKC 
     FM021900 31009KT P6SM SKC 
     FM030200 VRB04KT P6SM SKC